createdAt,value
2019-03-27T00:01:55.184Z,7.10
2019-03-27T00:04:25.054Z,8.37
2019-03-27T00:06:54.945Z,8.50
2019-03-27T00:09:24.789Z,7.97
2019-03-27T00:11:54.656Z,8.57
2019-03-27T00:14:24.492Z,8.57
2019-03-27T00:16:54.324Z,8.47
2019-03-27T00:19:24.211Z,8.63
2019-03-27T00:21:54.055Z,8.80
2019-03-27T00:24:24.303Z,8.83
2019-03-27T00:26:54.146Z,8.57
2019-03-27T00:29:24.022Z,9.57
2019-03-27T00:31:53.908Z,8.40
2019-03-27T00:34:23.748Z,9.77
2019-03-27T00:36:53.695Z,9.00
2019-03-27T00:39:23.498Z,10.07
2019-03-27T00:41:53.286Z,9.83
2019-03-27T00:44:23.543Z,9.67
2019-03-27T00:46:53.328Z,9.80
2019-03-27T00:49:23.210Z,9.57
2019-03-27T00:51:53.312Z,10.53
2019-03-27T00:54:23.386Z,8.93
2019-03-27T00:56:53.401Z,8.50
2019-03-27T00:59:23.421Z,9.93
2019-03-27T01:01:53.235Z,8.60
2019-03-27T01:04:23.394Z,9.03
2019-03-27T01:06:53.186Z,9.43
2019-03-27T01:09:23.117Z,9.43
2019-03-27T01:11:52.886Z,9.80
2019-03-27T01:14:22.717Z,9.80
2019-03-27T01:16:52.637Z,9.93
2019-03-27T01:19:22.426Z,9.50
2019-03-27T01:21:52.240Z,9.00
2019-03-27T01:24:22.011Z,10.17
2019-03-27T01:26:51.885Z,11.30
2019-03-27T01:29:21.638Z,10.97
2019-03-27T01:31:51.379Z,10.57
2019-03-27T01:34:21.567Z,10.63
2019-03-27T01:36:51.404Z,10.80
2019-03-27T01:39:21.567Z,11.03
2019-03-27T01:41:51.417Z,10.13
2019-03-27T01:44:21.194Z,11.07
2019-03-27T01:46:51.137Z,10.03
2019-03-27T01:49:21.853Z,10.83
2019-03-27T01:52:12.005Z,11.10
2019-03-27T01:54:41.782Z,10.90
2019-03-27T01:57:11.706Z,11.07
2019-03-27T01:59:41.709Z,10.23
2019-03-27T02:02:11.764Z,11.33
2019-03-27T02:04:41.591Z,10.37
2019-03-27T02:07:11.400Z,10.63
2019-03-27T02:09:41.202Z,10.47
2019-03-27T02:12:10.974Z,10.47
2019-03-27T02:14:40.793Z,10.43
2019-03-27T02:17:10.671Z,10.40
2019-03-27T02:19:40.422Z,9.97
2019-03-27T02:22:49.736Z,10.13
2019-03-27T02:25:19.750Z,9.87
2019-03-27T02:27:49.812Z,10.70
2019-03-27T02:30:19.563Z,10.30
2019-03-27T02:32:49.357Z,10.47
2019-03-27T02:35:19.404Z,10.20
2019-03-27T02:37:50.102Z,9.87
2019-03-27T02:40:20.117Z,10.30
2019-03-27T02:42:49.936Z,10.50
2019-03-27T02:45:19.720Z,11.03
2019-03-27T02:47:49.536Z,10.93
2019-03-27T02:50:19.797Z,10.73
2019-03-27T02:52:49.630Z,10.40
2019-03-27T02:55:19.733Z,10.57
2019-03-27T02:57:49.490Z,11.03
2019-03-27T03:00:58.416Z,10.00
2019-03-27T03:03:28.587Z,9.80
2019-03-27T03:05:58.359Z,10.87
2019-03-27T03:08:28.152Z,10.60
2019-03-27T03:10:57.966Z,10.80
2019-03-27T03:13:27.719Z,11.20
2019-03-27T03:15:57.490Z,10.87
2019-03-27T03:18:27.298Z,10.13
2019-03-27T03:20:57.054Z,11.47
2019-03-27T03:23:26.835Z,11.40
2019-03-27T03:25:56.720Z,11.57
2019-03-27T03:28:26.523Z,12.13
2019-03-27T03:30:56.301Z,11.70
2019-03-27T03:33:26.086Z,11.47
2019-03-27T03:35:55.898Z,11.00
2019-03-27T03:38:25.670Z,11.20
2019-03-27T03:40:55.560Z,11.70
2019-03-27T03:43:25.430Z,11.83
2019-03-27T03:45:55.269Z,11.73
2019-03-27T03:48:25.087Z,12.60
2019-03-27T03:51:34.059Z,11.47
2019-03-27T03:54:24.003Z,12.57
2019-03-27T03:57:32.894Z,11.73
2019-03-27T04:00:44.164Z,12.57
2019-03-27T04:03:14.235Z,12.50
2019-03-27T04:05:44.107Z,11.77
2019-03-27T04:08:13.887Z,12.17
2019-03-27T04:10:43.811Z,12.07
2019-03-27T04:13:14.004Z,12.27
2019-03-27T04:15:43.991Z,13.57
2019-03-27T04:18:13.727Z,12.63
2019-03-27T04:20:43.527Z,13.23
2019-03-27T04:23:13.300Z,13.50
2019-03-27T04:26:08.288Z,12.80
2019-03-27T04:28:14.642Z,12.37
2019-03-27T04:30:44.390Z,12.63
2019-03-27T04:33:14.146Z,12.47
2019-03-27T04:35:43.918Z,12.60
2019-03-27T04:38:13.703Z,12.60
2019-03-27T04:40:43.473Z,14.30
2019-03-27T04:43:13.305Z,14.10
2019-03-27T04:45:43.172Z,12.97
2019-03-27T04:48:12.976Z,12.83
2019-03-27T04:50:42.856Z,13.50
2019-03-27T04:53:12.638Z,13.67
2019-03-27T04:55:42.758Z,13.10
2019-03-27T04:58:12.553Z,12.87
2019-03-27T05:00:42.394Z,13.73
2019-03-27T05:03:12.202Z,14.70
2019-03-27T05:05:42.080Z,15.13
2019-03-27T05:08:12.062Z,15.33
2019-03-27T05:10:41.916Z,17.17
2019-03-27T05:13:11.746Z,17.50
2019-03-27T05:15:41.501Z,16.70
2019-03-27T05:18:11.700Z,17.37
2019-03-27T05:20:41.477Z,16.40
2019-03-27T05:23:11.284Z,15.27
2019-03-27T05:25:41.070Z,15.13
2019-03-27T05:28:11.765Z,15.93
2019-03-27T05:30:41.577Z,16.47
2019-03-27T05:33:11.452Z,17.57
2019-03-27T05:35:41.258Z,20.17
2019-03-27T05:38:11.106Z,20.73
2019-03-27T05:40:40.930Z,23.47
2019-03-27T05:43:10.793Z,22.03
2019-03-27T05:45:40.637Z,20.60
2019-03-27T05:48:10.788Z,22.70
2019-03-27T05:50:40.602Z,21.27
2019-03-27T05:53:10.822Z,24.97
2019-03-27T05:55:40.650Z,26.03
2019-03-27T05:58:10.643Z,32.23
2019-03-27T06:00:40.557Z,30.37
2019-03-27T06:03:10.897Z,27.87
2019-03-27T06:05:41.723Z,24.83
2019-03-27T06:08:50.672Z,24.10
2019-03-27T06:11:20.446Z,23.37
2019-03-27T06:13:50.282Z,21.23
2019-03-27T06:16:20.166Z,20.87
2019-03-27T06:18:50.025Z,18.93
2019-03-27T06:21:19.832Z,20.80
2019-03-27T06:23:50.027Z,19.17
2019-03-27T06:26:19.969Z,19.20
2019-03-27T06:28:50.103Z,19.97
2019-03-27T06:31:19.918Z,17.70
2019-03-27T06:33:49.752Z,18.43
2019-03-27T06:36:19.595Z,17.40
2019-03-27T06:38:49.822Z,18.07
2019-03-27T06:41:19.719Z,18.20
2019-03-27T06:43:49.556Z,17.57
2019-03-27T06:46:19.450Z,16.13
2019-03-27T06:48:49.336Z,17.17
2019-03-27T06:51:19.148Z,15.97
2019-03-27T06:53:48.987Z,17.40
2019-03-27T06:56:18.855Z,17.20
2019-03-27T06:58:54.359Z,16.63
2019-03-27T07:01:20.238Z,16.63
2019-03-27T07:03:50.354Z,16.33
2019-03-27T07:06:20.130Z,17.00
2019-03-27T07:08:49.935Z,16.83
2019-03-27T07:11:19.787Z,17.30
2019-03-27T07:13:49.588Z,19.63
2019-03-27T07:16:19.437Z,18.43
2019-03-27T07:18:50.748Z,19.20
2019-03-27T07:21:20.621Z,18.97
2019-03-27T07:23:50.472Z,18.70
2019-03-27T07:26:20.405Z,18.23
2019-03-27T07:28:50.729Z,18.00
2019-03-27T07:31:20.624Z,20.70
2019-03-27T07:33:50.867Z,18.97
2019-03-27T07:36:20.740Z,18.80
2019-03-27T07:38:50.519Z,19.87
2019-03-27T07:41:20.610Z,20.33
2019-03-27T07:43:50.673Z,17.83
2019-03-27T07:46:21.410Z,20.57
2019-03-27T07:48:54.140Z,18.70
2019-03-27T07:51:22.733Z,24.43
2019-03-27T07:53:52.519Z,21.70
2019-03-27T07:56:23.153Z,19.73
2019-03-27T07:58:53.040Z,19.87
2019-03-27T08:01:23.018Z,21.87
2019-03-27T08:03:52.765Z,19.77
2019-03-27T08:06:22.535Z,20.60
2019-03-27T08:08:52.468Z,21.97
2019-03-27T08:11:22.817Z,25.63
2019-03-27T08:13:52.591Z,20.13
2019-03-27T08:16:22.408Z,18.93
2019-03-27T08:18:52.149Z,21.23
2019-03-27T08:21:21.951Z,18.80
2019-03-27T08:23:51.756Z,19.77
2019-03-27T08:26:21.598Z,20.60
2019-03-27T08:28:51.462Z,18.53
2019-03-27T08:31:21.373Z,19.20
2019-03-27T08:33:51.142Z,17.53
2019-03-27T08:36:20.896Z,18.40
2019-03-27T08:38:50.718Z,20.97
2019-03-27T08:41:20.479Z,17.30
2019-03-27T08:43:50.602Z,17.50
2019-03-27T08:46:20.350Z,16.37
2019-03-27T08:48:50.142Z,17.50
2019-03-27T08:51:19.903Z,14.03
2019-03-27T08:53:49.707Z,14.27
2019-03-27T08:56:19.474Z,16.60
2019-03-27T08:58:49.243Z,16.47
2019-03-27T09:01:19.053Z,16.07
2019-03-27T09:03:48.885Z,15.90
2019-03-27T09:06:32.782Z,16.23
2019-03-27T09:08:51.031Z,18.13
2019-03-27T09:11:20.840Z,16.70
2019-03-27T09:13:50.616Z,16.87
2019-03-27T09:16:20.442Z,15.03
2019-03-27T09:18:50.212Z,15.37
2019-03-27T09:21:20.369Z,16.47
2019-03-27T09:23:50.182Z,16.90
2019-03-27T09:26:19.948Z,15.47
2019-03-27T09:28:49.741Z,14.80
2019-03-27T09:31:19.544Z,15.33
2019-03-27T09:33:49.330Z,14.87
2019-03-27T09:36:19.401Z,13.97
2019-03-27T09:38:49.227Z,12.67
2019-03-27T09:41:21.431Z,13.17
2019-03-27T09:43:50.506Z,13.47
2019-03-27T09:46:20.270Z,12.77
2019-03-27T09:48:50.056Z,12.63
2019-03-27T09:51:19.813Z,12.10
2019-03-27T09:53:52.954Z,12.40
2019-03-27T09:56:21.079Z,12.23
2019-03-27T09:59:09.977Z,13.17
2019-03-27T10:01:39.722Z,14.40
2019-03-27T10:04:09.913Z,13.23
2019-03-27T10:06:39.945Z,14.10
2019-03-27T10:09:09.799Z,15.60
2019-03-27T10:11:39.578Z,13.00
2019-03-27T10:14:09.368Z,11.77
2019-03-27T10:16:39.179Z,12.63
2019-03-27T10:19:08.962Z,12.73
2019-03-27T10:21:38.745Z,12.60
2019-03-27T10:24:08.499Z,11.27
2019-03-27T10:26:38.310Z,11.97
2019-03-27T10:29:08.118Z,12.30
2019-03-27T10:31:38.063Z,11.30
2019-03-27T10:34:07.924Z,11.33
2019-03-27T10:36:37.751Z,11.07
2019-03-27T10:39:08.524Z,11.27
2019-03-27T10:41:38.398Z,10.40
2019-03-27T10:44:08.170Z,10.20
2019-03-27T10:46:38.043Z,11.00
2019-03-27T10:49:07.827Z,11.27
2019-03-27T10:51:37.637Z,11.50
2019-03-27T10:54:07.406Z,11.43
2019-03-27T10:56:37.289Z,11.13
2019-03-27T10:59:07.091Z,12.53
2019-03-27T11:01:36.949Z,12.10
2019-03-27T11:04:06.760Z,12.53
2019-03-27T11:06:36.564Z,9.00
2019-03-27T11:09:09.495Z,8.73
2019-03-27T11:11:39.374Z,8.30
2019-03-27T11:14:09.145Z,7.13
2019-03-27T11:19:54.196Z,5.63
2019-03-27T11:22:24.026Z,6.27
2019-03-27T11:24:53.830Z,4.77
2019-03-27T11:27:23.687Z,5.60
2019-03-27T11:29:53.796Z,5.50
2019-03-27T11:32:23.714Z,4.03
2019-03-27T11:34:58.614Z,5.73
2019-03-27T11:37:28.689Z,6.20
2019-03-27T11:39:59.038Z,4.83
2019-03-27T11:42:29.048Z,4.40
2019-03-27T11:45:17.989Z,4.60
2019-03-27T11:47:47.955Z,4.60
2019-03-27T11:50:18.020Z,5.07
2019-03-27T11:52:48.896Z,4.70
2019-03-27T11:55:57.818Z,5.53
2019-03-27T11:58:28.161Z,7.73
2019-03-27T12:00:58.008Z,8.07
2019-03-27T12:03:27.997Z,8.53
2019-03-27T12:05:58.310Z,7.17
2019-03-27T12:08:28.338Z,8.50
2019-03-27T12:10:58.225Z,8.33
2019-03-27T12:13:28.765Z,6.97
2019-03-27T12:16:00.307Z,8.37
2019-03-27T12:18:31.967Z,8.33
2019-03-27T12:21:02.359Z,7.97
2019-03-27T12:23:32.367Z,7.10
2019-03-27T12:26:02.366Z,6.80
2019-03-27T12:28:32.243Z,6.63
2019-03-27T12:31:02.148Z,7.53
2019-03-27T12:33:50.826Z,7.37
2019-03-27T12:36:20.718Z,7.70
2019-03-27T12:38:51.598Z,9.43
2019-03-27T12:41:21.447Z,9.20
2019-03-27T12:43:51.229Z,9.13
2019-03-27T12:46:21.422Z,9.87
2019-03-27T12:48:51.224Z,9.47
2019-03-27T12:51:21.031Z,10.30
2019-03-27T12:53:52.307Z,8.40
2019-03-27T12:56:22.243Z,8.80
2019-03-27T12:58:52.082Z,6.27
2019-03-27T13:01:21.975Z,5.70
2019-03-27T13:03:51.822Z,6.97
2019-03-27T13:06:21.726Z,7.03
2019-03-27T13:08:51.612Z,7.70
2019-03-27T13:11:21.468Z,8.97
2019-03-27T13:13:51.355Z,7.30
2019-03-27T13:16:21.116Z,7.43
2019-03-27T13:18:51.741Z,8.30
2019-03-27T13:21:26.589Z,9.33
2019-03-27T13:23:53.448Z,8.83
2019-03-27T13:26:23.305Z,8.17
2019-03-27T13:28:53.129Z,9.93
2019-03-27T13:31:22.994Z,9.33
2019-03-27T13:33:52.897Z,10.57
2019-03-27T13:36:22.738Z,11.40
2019-03-27T13:38:52.678Z,11.67
2019-03-27T13:41:22.524Z,12.73
2019-03-27T13:43:52.383Z,10.80
2019-03-27T13:46:22.188Z,10.10
2019-03-27T13:49:31.093Z,9.13
2019-03-27T13:52:00.905Z,10.53
2019-03-27T13:54:31.397Z,11.23
2019-03-27T13:57:01.256Z,10.93
2019-03-27T13:59:31.634Z,10.20
2019-03-27T14:02:01.480Z,9.90
2019-03-27T14:04:31.320Z,10.07
2019-03-27T14:07:01.247Z,9.03
2019-03-27T14:12:30.298Z,8.90
2019-03-27T14:15:02.340Z,8.20
2019-03-27T14:17:32.182Z,8.60
2019-03-27T14:20:02.382Z,8.80
2019-03-27T14:22:32.228Z,8.70
2019-03-27T14:25:02.295Z,8.90
2019-03-27T14:27:32.230Z,9.73
2019-03-27T14:30:02.416Z,8.60
2019-03-27T14:32:32.368Z,8.23
2019-03-27T14:35:02.311Z,8.73
2019-03-27T14:37:32.428Z,9.30
2019-03-27T14:43:22.783Z,10.90
2019-03-27T14:45:54.453Z,12.60
2019-03-27T14:48:44.551Z,12.57
2019-03-27T14:51:14.437Z,11.67
2019-03-27T14:53:44.517Z,11.57
2019-03-27T14:58:53.704Z,11.63
2019-03-27T15:01:23.674Z,11.10
2019-03-27T15:03:53.558Z,10.50
2019-03-27T15:06:59.817Z,11.43
2019-03-27T15:09:30.177Z,12.47
2019-03-27T15:12:00.476Z,12.20
2019-03-27T15:14:30.453Z,12.83
2019-03-27T15:17:00.542Z,12.83
2019-03-27T15:19:31.276Z,12.47
2019-03-27T15:22:01.101Z,11.90
2019-03-27T15:24:30.913Z,12.93
2019-03-27T15:27:00.913Z,12.73
2019-03-27T15:29:50.007Z,11.17
2019-03-27T15:32:19.985Z,10.93
2019-03-27T16:21:20.329Z,9.47
2019-03-27T17:31:24.956Z,7.90
2019-03-27T17:34:05.524Z,8.37
2019-03-27T17:36:35.484Z,7.40
2019-03-27T17:49:46.239Z,8.40
2019-03-27T17:52:16.318Z,8.20
2019-03-27T17:54:46.506Z,7.80
2019-03-27T17:57:16.690Z,9.20
2019-03-27T18:22:19.565Z,9.23
2019-03-27T18:24:49.852Z,9.03
2019-03-27T18:27:19.735Z,9.10
2019-03-27T18:29:49.818Z,10.00
2019-03-27T18:32:20.386Z,9.20
2019-03-27T18:34:50.438Z,9.20
2019-03-27T18:37:20.419Z,9.00
2019-03-27T18:40:12.983Z,9.23
2019-03-27T22:10:13.394Z,14.47
2019-03-27T22:55:50.717Z,15.03
2019-03-27T23:26:11.940Z,15.57
2019-03-27T23:28:41.742Z,15.20
2019-03-27T23:31:11.499Z,15.10
2019-03-27T23:33:42.015Z,15.13
2019-03-27T23:36:12.152Z,15.10
2019-03-27T23:38:42.005Z,14.83
2019-03-27T23:41:11.825Z,15.80
2019-03-27T23:43:41.701Z,15.83
2019-03-27T23:46:11.572Z,16.70
2019-03-27T23:48:41.398Z,16.07
2019-03-27T23:51:11.230Z,16.43
2019-03-27T23:53:41.081Z,16.13
2019-03-27T23:56:16.556Z,14.93
2019-03-27T23:58:42.814Z,15.97
